Time;durP1;ratioP1;P1;durP2;ratioP2;P2;SDS_P1;SDS_P2;PMS_P1;PMS_P2;Temp;Humidity;BMP_temperature;BMP_pressure;BME280_temperature;BME280_humidity;BME280_pressure;Samples;Min_cycle;Max_cycle;Signal;HPM_P1;HPM_P2
2023/03/04 06:00:17;;;;;;;28.97;22.63;;;2.50;97.20;;;;;;1720735;28;20181;-65
2023/03/04 06:01:09;;;;;;;29.42;22.77;;;2.50;97.20;;;;;;1720685;28;20220;-66
2023/03/04 06:02:01;;;;;;;29.83;23.00;;;2.50;97.20;;;;;;1720735;28;20212;-66
2023/03/04 06:02:52;;;;;;;30.05;22.65;;;2.50;97.20;;;;;;1720637;28;20586;-65
2023/03/04 06:03:43;;;;;;;25.23;21.40;;;2.50;97.20;;;;;;1720552;28;20568;-66
2023/03/04 06:04:34;;;;;;;28.17;22.00;;;2.50;97.20;;;;;;1720675;28;20449;-65
2023/03/04 06:05:25;;;;;;;30.67;22.30;;;2.50;97.20;;;;;;1720680;28;20197;-65
2023/03/04 06:06:17;;;;;;;27.83;23.03;;;2.50;97.20;;;;;;1720379;28;20209;-65
2023/03/04 06:07:08;;;;;;;30.55;21.60;;;2.50;97.20;;;;;;1720659;28;20235;-65
2023/03/04 06:07:59;;;;;;;26.30;22.10;;;2.50;97.20;;;;;;1720789;28;20681;-66
2023/03/04 06:08:50;;;;;;;28.48;21.35;;;2.40;97.20;;;;;;1720681;28;20205;-65
2023/03/04 06:09:43;;;;;;;30.00;23.27;;;2.50;97.20;;;;;;1720606;28;20205;-65
2023/03/04 06:10:34;;;;;;;28.13;22.58;;;2.50;97.20;;;;;;1720534;28;20460;-66
2023/03/04 06:11:26;;;;;;;25.90;20.17;;;2.50;97.20;;;;;;1720657;28;20232;-66
2023/03/04 06:12:17;;;;;;;27.48;22.05;;;2.50;97.20;;;;;;1720497;28;20213;-66
2023/03/04 06:13:09;;;;;;;30.17;22.10;;;2.40;97.20;;;;;;1720572;28;20204;-66
2023/03/04 06:14:00;;;;;;;28.13;23.05;;;2.40;97.20;;;;;;1720518;28;20206;-66
2023/03/04 06:14:52;;;;;;;28.70;23.47;;;2.40;97.20;;;;;;1720697;28;20212;-66
2023/03/04 06:15:44;;;;;;;28.08;23.58;;;2.40;97.20;;;;;;1720341;28;20667;-66
2023/03/04 06:16:36;;;;;;;27.88;21.88;;;2.50;97.20;;;;;;1720582;28;20236;-66
2023/03/04 06:17:26;;;;;;;28.45;22.42;;;2.50;97.20;;;;;;1720504;28;20201;-66
2023/03/04 06:18:18;;;;;;;28.33;21.07;;;2.50;97.20;;;;;;1720129;28;20207;-66
2023/03/04 06:19:09;;;;;;;30.90;24.40;;;2.50;97.20;;;;;;1720655;28;20205;-66
2023/03/04 06:20:00;;;;;;;35.03;23.00;;;2.50;97.20;;;;;;1720742;28;20205;-66
2023/03/04 06:20:55;;;;;;;28.02;23.05;;;2.50;97.20;;;;;;1720573;28;20252;-66
2023/03/04 06:21:47;;;;;;;29.90;23.70;;;2.50;97.20;;;;;;1720627;28;20204;-66
2023/03/04 06:22:38;;;;;;;28.98;21.30;;;2.50;97.20;;;;;;1720641;28;20615;-66
2023/03/04 06:23:30;;;;;;;31.27;23.65;;;2.50;97.20;;;;;;1720496;28;20655;-66
2023/03/04 06:24:21;;;;;;;28.75;25.00;;;2.50;97.20;;;;;;1718370;28;20197;-66
2023/03/04 06:25:13;;;;;;;29.33;23.13;;;2.50;97.20;;;;;;1713994;28;20660;-66
2023/03/04 06:26:08;;;;;;;28.23;22.83;;;2.50;97.20;;;;;;1713448;28;20236;-66
2023/03/04 06:26:59;;;;;;;29.95;23.33;;;2.50;97.20;;;;;;1719913;28;20201;-65
2023/03/04 06:27:50;;;;;;;27.35;21.70;;;2.60;97.20;;;;;;1719929;28;20194;-65
2023/03/04 06:28:42;;;;;;;27.33;21.63;;;2.50;97.20;;;;;;1720554;28;20201;-66
2023/03/04 06:29:33;;;;;;;29.55;23.45;;;2.60;97.20;;;;;;1720648;28;20212;-66
2023/03/04 06:30:24;;;;;;;26.03;21.63;;;2.60;97.20;;;;;;1719970;28;20193;-67
2023/03/04 06:31:16;;;;;;;26.80;21.77;;;2.60;97.20;;;;;;1720657;28;20209;-67
2023/03/04 06:32:08;;;;;;;26.90;22.30;;;2.60;97.20;;;;;;1720561;28;20667;-66
2023/03/04 06:32:59;;;;;;;29.25;23.27;;;2.70;97.20;;;;;;1720713;28;20201;-65
2023/03/04 06:33:50;;;;;;;25.43;21.60;;;2.70;97.20;;;;;;1720712;28;20209;-65
2023/03/04 06:34:41;;;;;;;27.70;21.65;;;2.70;97.20;;;;;;1720532;28;20252;-65
2023/03/04 06:35:33;;;;;;;30.00;23.00;;;2.70;97.20;;;;;;1720604;28;20212;-65
2023/03/04 06:36:24;;;;;;;33.55;24.10;;;2.70;97.20;;;;;;1717469;28;20253;-65
2023/03/04 06:37:15;;;;;;;27.57;21.57;;;2.80;97.20;;;;;;1713837;28;20197;-65
2023/03/04 06:38:06;;;;;;;26.42;21.63;;;2.80;97.20;;;;;;1713871;28;20205;-65
2023/03/04 06:38:58;;;;;;;28.00;21.50;;;2.80;97.20;;;;;;1713999;28;20202;-65
2023/03/04 06:39:49;;;;;;;26.63;22.13;;;2.90;97.20;;;;;;1713855;28;20621;-65
2023/03/04 06:40:41;;;;;;;27.67;22.15;;;2.90;97.20;;;;;;1713808;28;20578;-65
2023/03/04 06:41:32;;;;;;;27.52;21.60;;;3.00;97.20;;;;;;1713839;28;20591;-65
2023/03/04 06:42:24;;;;;;;27.08;21.10;;;3.00;97.20;;;;;;1713819;28;20212;-68
2023/03/04 06:43:14;;;;;;;25.33;19.60;;;3.10;97.20;;;;;;1713828;28;20237;-66
2023/03/04 06:44:07;;;;;;;27.37;21.17;;;3.10;97.20;;;;;;1713880;28;20205;-66
2023/03/04 06:44:57;;;;;;;25.55;19.67;;;3.10;97.20;;;;;;1713932;28;20237;-66
2023/03/04 06:45:49;;;;;;;25.30;21.30;;;3.10;97.20;;;;;;1714526;28;20193;-66
2023/03/04 06:46:42;;;;;;;26.23;20.20;;;3.20;97.20;;;;;;1713858;28;20210;-66
2023/03/04 06:47:33;;;;;;;25.65;20.25;;;3.20;97.20;;;;;;1713838;28;20206;-66
2023/03/04 06:48:24;;;;;;;27.63;21.40;;;3.20;97.20;;;;;;1713831;28;20202;-66
2023/03/04 06:49:16;;;;;;;24.70;20.73;;;3.30;97.20;;;;;;1713830;28;20208;-66
2023/03/04 06:50:08;;;;;;;27.20;20.65;;;3.30;97.20;;;;;;1713843;28;20209;-67
2023/03/04 06:51:05;;;;;;;26.27;20.88;;;3.30;97.20;;;;;;1713768;28;20228;-66
2023/03/04 06:51:56;;;;;;;27.83;22.30;;;3.30;97.20;;;;;;1713951;28;20298;-65
2023/03/04 06:52:48;;;;;;;26.37;21.00;;;3.40;97.20;;;;;;1713873;28;20281;-66
2023/03/04 06:53:39;;;;;;;30.52;23.63;;;3.40;97.20;;;;;;1713816;28;20473;-66
2023/03/04 06:54:31;;;;;;;25.08;21.13;;;3.40;97.20;;;;;;1713791;28;20240;-66
2023/03/04 06:55:22;;;;;;;28.73;21.85;;;3.40;97.20;;;;;;1715088;28;20205;-66
2023/03/04 06:56:14;;;;;;;29.47;21.23;;;3.50;97.20;;;;;;1720320;28;20197;-66
2023/03/04 06:57:06;;;;;;;31.10;22.35;;;3.50;97.20;;;;;;1720451;28;20205;-67
2023/03/04 06:57:57;;;;;;;26.17;19.75;;;3.60;97.20;;;;;;1717993;28;20216;-64
2023/03/04 06:58:48;;;;;;;26.90;20.50;;;3.60;97.20;;;;;;1719944;28;20205;-66
2023/03/04 06:59:40;;;;;;;27.70;21.07;;;3.60;97.20;;;;;;1720182;28;20201;-67
2023/03/04 07:00:31;;;;;;;25.45;21.17;;;3.70;97.20;;;;;;1719910;28;20256;-67
2023/03/04 07:01:25;;;;;;;26.43;20.97;;;3.70;97.20;;;;;;1720040;28;20213;-66
2023/03/04 07:02:17;;;;;;;26.45;21.48;;;3.80;97.20;;;;;;1719711;28;20233;-66
2023/03/04 07:03:10;;;;;;;29.00;22.55;;;3.80;97.20;;;;;;1719442;28;20671;-66
2023/03/04 07:04:01;;;;;;;25.13;20.23;;;3.90;97.20;;;;;;1720027;28;20216;-65
2023/03/04 07:04:53;;;;;;;29.80;23.43;;;3.90;97.20;;;;;;1719898;28;20216;-66
2023/03/04 07:05:44;;;;;;;27.67;21.85;;;4.00;97.20;;;;;;1719108;28;20989;-66
2023/03/04 07:06:35;;;;;;;27.17;20.70;;;4.00;97.20;;;;;;1719686;28;20675;-66
2023/03/04 07:07:26;;;;;;;25.90;21.55;;;4.10;97.20;;;;;;1719835;28;20212;-67
2023/03/04 07:08:18;;;;;;;25.33;20.00;;;4.10;97.20;;;;;;1720123;28;20229;-65
2023/03/04 07:09:09;;;;;;;28.35;19.20;;;4.20;97.20;;;;;;1719963;28;20205;-66
2023/03/04 07:10:00;;;;;;;27.20;21.33;;;4.30;97.20;;;;;;1719882;28;20201;-66
2023/03/04 07:10:51;;;;;;;28.63;20.33;;;4.30;97.20;;;;;;1720091;28;20269;-66
2023/03/04 07:11:43;;;;;;;26.00;21.27;;;4.40;97.20;;;;;;1719914;28;20221;-66
2023/03/04 07:12:33;;;;;;;25.42;20.30;;;4.40;97.20;;;;;;1719359;28;20205;-66
2023/03/04 07:13:25;;;;;;;28.67;21.20;;;4.40;97.20;;;;;;1719608;28;20197;-67
2023/03/04 07:14:16;;;;;;;30.45;21.73;;;4.50;97.20;;;;;;1720131;28;20209;-66
2023/03/04 07:15:09;;;;;;;26.77;21.13;;;4.50;97.20;;;;;;1719860;28;20205;-67
2023/03/04 07:16:00;;;;;;;24.73;20.25;;;4.60;97.20;;;;;;1718852;28;20208;-66
2023/03/04 07:16:52;;;;;;;27.50;20.88;;;4.60;97.20;;;;;;1720115;28;20280;-67
2023/03/04 07:17:44;;;;;;;27.65;21.83;;;4.60;97.20;;;;;;1719945;28;20644;-67
2023/03/04 07:18:36;;;;;;;27.08;20.90;;;4.60;97.20;;;;;;1719919;28;20201;-67
2023/03/04 07:19:27;;;;;;;26.65;21.45;;;4.60;97.20;;;;;;1719856;28;20249;-67
2023/03/04 07:20:19;;;;;;;24.67;19.97;;;4.60;97.20;;;;;;1719944;28;20201;-67
2023/03/04 07:21:09;;;;;;;27.05;21.25;;;4.60;97.20;;;;;;1719938;28;20444;-66
2023/03/04 07:22:01;;;;;;;28.13;21.60;;;4.60;97.20;;;;;;1719945;28;20197;-66
2023/03/04 07:22:52;;;;;;;24.35;20.80;;;4.60;97.20;;;;;;1719210;28;20655;-67
2023/03/04 07:23:44;;;;;;;29.73;21.07;;;4.60;97.20;;;;;;1719927;28;20672;-65
2023/03/04 07:24:36;;;;;;;27.42;20.52;;;4.60;97.20;;;;;;1719887;28;20201;-67
2023/03/04 07:25:27;;;;;;;28.75;20.75;;;4.70;97.20;;;;;;1719311;28;20686;-66
2023/03/04 07:26:18;;;;;;;26.13;21.20;;;4.70;97.20;;;;;;1719415;28;20659;-66
2023/03/04 07:27:09;;;;;;;24.75;20.30;;;4.70;97.20;;;;;;1719896;28;20236;-67
2023/03/04 07:28:01;;;;;;;24.63;19.90;;;4.70;97.20;;;;;;1719957;28;20764;-67
2023/03/04 07:28:53;;;;;;;28.08;21.90;;;4.70;97.20;;;;;;1720029;28;20205;-66
2023/03/04 07:29:45;;;;;;;26.05;20.38;;;4.70;97.20;;;;;;1719921;28;20203;-66
2023/03/04 07:30:35;;;;;;;26.48;19.75;;;4.70;97.20;;;;;;1720061;28;20260;-67
2023/03/04 07:31:30;;;;;;;26.77;20.53;;;4.70;97.20;;;;;;1721123;28;20200;-66
2023/03/04 07:32:20;;;;;;;25.20;20.27;;;4.70;97.20;;;;;;1720775;28;20263;-66
2023/03/04 07:33:14;;;;;;;25.70;20.67;;;4.70;97.20;;;;;;1720633;28;20264;-67
2023/03/04 07:34:07;;;;;;;23.75;19.52;;;4.70;97.20;;;;;;1721042;28;20547;-67
2023/03/04 07:34:58;;;;;;;26.75;19.48;;;4.70;97.20;;;;;;1721188;28;20213;-67
2023/03/04 07:35:57;;;;;;;25.52;19.65;;;4.70;97.20;;;;;;1719883;28;20591;-66
2023/03/04 07:36:49;;;;;;;24.52;20.23;;;4.70;97.20;;;;;;1720911;28;20325;-66
2023/03/04 07:37:40;;;;;;;25.98;19.98;;;4.80;97.20;;;;;;1720781;28;20209;-66
2023/03/04 07:38:32;;;;;;;24.00;20.03;;;4.80;97.20;;;;;;1721223;28;20252;-66
2023/03/04 07:39:23;;;;;;;25.58;21.48;;;4.80;97.20;;;;;;1721030;28;20476;-65
2023/03/04 07:40:14;;;;;;;23.37;18.97;;;4.90;97.20;;;;;;1721098;28;20663;-67
2023/03/04 07:41:05;;;;;;;25.30;20.27;;;4.90;97.20;;;;;;1721069;28;20452;-66
2023/03/04 07:41:57;;;;;;;22.67;18.83;;;4.90;97.20;;;;;;1721138;28;20205;-66
2023/03/04 07:42:49;;;;;;;23.58;18.98;;;4.90;97.20;;;;;;1720262;28;20201;-66
2023/03/04 07:43:40;;;;;;;26.33;19.38;;;5.00;97.20;;;;;;1720790;28;20216;-66
2023/03/04 07:44:31;;;;;;;24.08;19.50;;;5.00;97.20;;;;;;1721081;28;20220;-66
2023/03/04 07:45:24;;;;;;;24.53;18.93;;;5.00;97.20;;;;;;1720911;28;20223;-66
2023/03/04 07:46:15;;;;;;;26.17;19.40;;;5.00;97.20;;;;;;1720283;28;20213;-66
2023/03/04 07:47:07;;;;;;;26.15;19.27;;;5.00;97.20;;;;;;1720843;28;20554;-65
2023/03/04 07:47:58;;;;;;;26.25;19.90;;;5.00;97.20;;;;;;1721106;28;20205;-66
2023/03/04 07:48:51;;;;;;;23.63;19.40;;;5.10;97.20;;;;;;1720998;28;20201;-66
2023/03/04 07:49:41;;;;;;;23.10;18.75;;;5.10;97.20;;;;;;1721054;28;20213;-66
2023/03/04 07:50:33;;;;;;;25.23;19.80;;;5.10;97.20;;;;;;1720163;28;20217;-66
2023/03/04 07:51:26;;;;;;;22.67;18.80;;;5.10;97.20;;;;;;1720585;28;20580;-66
2023/03/04 07:52:17;;;;;;;24.25;19.98;;;5.10;97.20;;;;;;1720569;28;20200;-67
2023/03/04 07:53:09;;;;;;;24.73;19.45;;;5.10;97.20;;;;;;1720328;28;20232;-67
2023/03/04 07:54:01;;;;;;;25.40;20.17;;;5.10;97.20;;;;;;1721143;28;20643;-66
2023/03/04 07:54:52;;;;;;;23.63;19.60;;;5.10;97.20;;;;;;1720923;28;20274;-66
2023/03/04 07:55:47;;;;;;;26.00;21.20;;;5.10;97.20;;;;;;1719761;28;20226;-67
2023/03/04 07:56:38;;;;;;;27.30;20.75;;;5.10;97.20;;;;;;1713805;28;20255;-67
2023/03/04 07:57:29;;;;;;;23.93;19.37;;;5.10;97.20;;;;;;1713568;28;20197;-65
2023/03/04 07:58:20;;;;;;;24.38;19.85;;;5.10;97.20;;;;;;1718219;28;20209;-66
2023/03/04 07:59:12;;;;;;;22.17;18.60;;;5.20;97.20;;;;;;1720886;28;20215;-66
2023/03/04 08:00:03;;;;;;;24.85;20.42;;;5.20;97.20;;;;;;1721033;28;20240;-66
2023/03/04 08:00:55;;;;;;;24.08;19.00;;;5.20;97.20;;;;;;1720956;28;20662;-66
2023/03/04 08:01:45;;;;;;;26.50;19.77;;;5.20;97.20;;;;;;1720851;28;20212;-66
2023/03/04 08:02:37;;;;;;;27.33;20.07;;;5.20;97.20;;;;;;1720567;28;20201;-66
2023/03/04 08:03:28;;;;;;;24.23;20.02;;;5.20;97.20;;;;;;1713823;28;20269;-65
2023/03/04 08:04:21;;;;;;;24.00;19.33;;;5.20;97.20;;;;;;1714358;28;20198;-66
2023/03/04 08:05:12;;;;;;;24.42;19.20;;;5.20;97.20;;;;;;1714184;28;20433;-66
2023/03/04 08:06:06;;;;;;;26.00;20.60;;;5.20;97.20;;;;;;1718185;28;20198;-65
2023/03/04 08:06:56;;;;;;;24.70;20.48;;;5.30;97.20;;;;;;1720883;28;20201;-66
2023/03/04 08:07:48;;;;;;;25.57;20.30;;;5.30;97.20;;;;;;1720846;28;20205;-65
2023/03/04 08:08:39;;;;;;;26.92;21.23;;;5.30;97.20;;;;;;1720991;28;20212;-66
2023/03/04 08:09:31;;;;;;;23.97;18.93;;;5.30;97.20;;;;;;1720881;28;20690;-66
2023/03/04 08:10:21;;;;;;;29.02;20.38;;;5.30;97.20;;;;;;1720825;28;20989;-65
2023/03/04 08:11:15;;;;;;;27.50;21.20;;;5.30;97.20;;;;;;1720907;28;20607;-65
2023/03/04 08:12:06;;;;;;;22.92;19.13;;;5.30;97.20;;;;;;1720655;28;20202;-65
2023/03/04 08:12:57;;;;;;;24.07;19.80;;;5.30;97.20;;;;;;1720094;28;20194;-65
2023/03/04 08:13:48;;;;;;;24.02;19.25;;;5.30;97.20;;;;;;1720817;28;20475;-66
2023/03/04 08:14:40;;;;;;;24.65;20.30;;;5.30;97.20;;;;;;1720781;28;20731;-66
2023/03/04 08:15:31;;;;;;;25.77;20.08;;;5.20;97.20;;;;;;1720226;28;20205;-65
2023/03/04 08:16:24;;;;;;;22.10;18.67;;;5.20;97.20;;;;;;1720350;28;20255;-66
2023/03/04 08:17:14;;;;;;;24.17;20.25;;;5.20;97.20;;;;;;1720860;28;20664;-66
2023/03/04 08:18:06;;;;;;;24.90;20.10;;;5.20;97.20;;;;;;1720717;28;20655;-66
2023/03/04 08:18:59;;;;;;;22.25;18.77;;;5.20;97.20;;;;;;1720807;28;20240;-66
2023/03/04 08:19:52;;;;;;;24.48;20.08;;;5.10;97.20;;;;;;1720760;28;20279;-66
2023/03/04 08:20:43;;;;;;;30.92;19.90;;;5.10;97.20;;;;;;1720825;28;20240;-66
2023/03/04 08:21:35;;;;;;;24.30;18.87;;;5.10;97.20;;;;;;1720761;28;20211;-66
2023/03/04 08:22:26;;;;;;;27.27;20.80;;;5.10;97.20;;;;;;1720214;28;20212;-66
2023/03/04 08:23:17;;;;;;;23.90;19.50;;;5.20;97.20;;;;;;1720472;28;20204;-66
2023/03/04 08:24:11;;;;;;;24.93;19.40;;;5.20;97.20;;;;;;1720853;28;20208;-66
2023/03/04 08:25:01;;;;;;;25.35;19.92;;;5.20;97.20;;;;;;1720734;28;20453;-68
2023/03/04 08:25:54;;;;;;;28.30;20.67;;;5.20;97.20;;;;;;1719671;28;20204;-65
2023/03/04 08:26:46;;;;;;;26.85;20.70;;;5.20;97.20;;;;;;1720738;28;20444;-66
2023/03/04 08:27:38;;;;;;;26.27;21.05;;;5.20;97.20;;;;;;1720637;28;20196;-66
2023/03/04 08:28:29;;;;;;;25.05;20.30;;;5.30;97.20;;;;;;1720698;28;20232;-66
2023/03/04 08:29:22;;;;;;;24.93;19.40;;;5.30;97.20;;;;;;1720800;28;20197;-65
2023/03/04 08:30:13;;;;;;;25.10;19.15;;;5.30;97.20;;;;;;1720634;28;20212;-66
2023/03/04 08:31:05;;;;;;;24.20;18.52;;;5.30;97.20;;;;;;1720579;28;20201;-64
2023/03/04 08:31:57;;;;;;;22.88;18.67;;;5.30;97.20;;;;;;1720870;28;20209;-65
2023/03/04 08:32:48;;;;;;;22.55;18.00;;;5.30;97.20;;;;;;1719988;28;20197;-66
2023/03/04 08:33:40;;;;;;;23.87;20.10;;;5.30;97.20;;;;;;1720616;28;20205;-64
2023/03/04 08:34:30;;;;;;;24.02;19.02;;;5.30;97.20;;;;;;1720744;28;20606;-65
2023/03/04 08:35:24;;;;;;;21.13;18.23;;;5.30;97.20;;;;;;1720718;28;20589;-65
2023/03/04 08:36:15;;;;;;;21.33;18.10;;;5.30;97.20;;;;;;1719596;28;20569;-66
2023/03/04 08:37:07;;;;;;;23.03;19.07;;;5.30;97.20;;;;;;1720466;28;20588;-67
2023/03/04 08:37:57;;;;;;;24.00;19.35;;;5.40;97.20;;;;;;1720565;28;20475;-66
2023/03/04 08:38:49;;;;;;;23.70;19.17;;;5.40;97.20;;;;;;1720548;28;20659;-66
2023/03/04 08:39:40;;;;;;;22.65;18.45;;;5.40;97.20;;;;;;1718808;28;20232;-65
2023/03/04 08:40:33;;;;;;;21.80;18.20;;;5.40;97.20;;;;;;1720377;28;20706;-65
2023/03/04 08:41:25;;;;;;;22.95;19.25;;;5.40;97.20;;;;;;1720288;28;20299;-66
2023/03/04 08:42:16;;;;;;;25.17;18.83;;;5.40;97.20;;;;;;1720815;28;20202;-66
2023/03/04 08:43:07;;;;;;;24.17;17.92;;;5.40;97.20;;;;;;1720380;28;20243;-67
2023/03/04 08:44:00;;;;;;;22.03;18.80;;;5.40;97.20;;;;;;1720758;28;20201;-65
2023/03/04 08:44:50;;;;;;;22.45;17.90;;;5.40;97.20;;;;;;1720649;28;20448;-65
2023/03/04 08:45:42;;;;;;;21.10;17.00;;;5.40;97.20;;;;;;1719103;28;20201;-66
2023/03/04 08:46:33;;;;;;;22.30;18.40;;;5.40;97.20;;;;;;1720326;28;20737;-65
2023/03/04 08:47:25;;;;;;;25.80;18.13;;;5.50;97.20;;;;;;1720606;28;20276;-66
2023/03/04 08:48:16;;;;;;;23.10;18.60;;;5.50;97.20;;;;;;1720765;28;20205;-66
2023/03/04 08:49:08;;;;;;;22.58;18.50;;;5.50;97.20;;;;;;1720537;28;20205;-66
2023/03/04 08:49:59;;;;;;;22.38;18.15;;;5.50;97.20;;;;;;1720700;28;20204;-66
2023/03/04 08:50:53;;;;;;;25.13;17.90;;;5.50;97.20;;;;;;1720580;28;20217;-66
2023/03/04 08:51:44;;;;;;;31.25;19.83;;;5.50;97.20;;;;;;1720495;28;20209;-66
2023/03/04 08:52:36;;;;;;;29.70;18.20;;;5.50;97.20;;;;;;1720624;28;20293;-66
2023/03/04 08:53:27;;;;;;;28.90;20.38;;;5.50;97.20;;;;;;1720446;28;21234;-66
2023/03/04 08:54:19;;;;;;;22.80;18.60;;;5.50;97.20;;;;;;1720640;28;20567;-66
2023/03/04 08:55:09;;;;;;;24.55;19.65;;;5.50;97.20;;;;;;1720502;28;20208;-65
2023/03/04 08:56:01;;;;;;;23.43;18.30;;;5.50;97.20;;;;;;1718009;28;20208;-66
2023/03/04 08:56:52;;;;;;;24.92;19.40;;;5.40;97.20;;;;;;1720148;28;20457;-66
2023/03/04 08:57:44;;;;;;;25.50;18.53;;;5.40;97.20;;;;;;1718876;28;20207;-66
2023/03/04 08:58:35;;;;;;;22.13;18.75;;;5.40;97.20;;;;;;1713878;28;20206;-65
2023/03/04 08:59:26;;;;;;;26.13;20.35;;;5.50;97.20;;;;;;1713892;28;20608;-66
2023/03/04 09:00:18;;;;;;;23.10;17.75;;;5.50;97.20;;;;;;1713856;28;20217;-66
2023/03/04 09:01:11;;;;;;;22.45;18.25;;;5.50;97.20;;;;;;1714037;28;20201;-66
2023/03/04 09:02:02;;;;;;;22.35;19.13;;;5.50;97.20;;;;;;1714166;28;20233;-66
2023/03/04 09:02:54;;;;;;;23.43;19.50;;;5.50;97.20;;;;;;1713661;28;20197;-66
2023/03/04 09:03:45;;;;;;;23.30;18.67;;;5.50;97.20;;;;;;1713675;28;20217;-66
2023/03/04 09:04:37;;;;;;;25.27;19.60;;;5.50;97.20;;;;;;1713626;28;20209;-66
2023/03/04 09:05:28;;;;;;;23.95;19.58;;;5.50;97.20;;;;;;1713545;28;20570;-66
2023/03/04 09:06:21;;;;;;;25.97;20.50;;;5.50;97.20;;;;;;1718730;28;20304;-65
2023/03/04 09:07:13;;;;;;;25.73;20.15;;;5.50;97.20;;;;;;1720251;28;20942;-65
2023/03/04 09:08:04;;;;;;;23.30;18.90;;;5.50;97.20;;;;;;1720381;28;20667;-65
2023/03/04 09:08:55;;;;;;;26.27;19.70;;;5.50;97.20;;;;;;1720372;28;20675;-65
2023/03/04 09:09:47;;;;;;;24.60;19.17;;;5.50;97.20;;;;;;1720344;28;20586;-65
2023/03/04 09:10:38;;;;;;;22.85;18.60;;;5.60;97.20;;;;;;1720335;28;20236;-65
2023/03/04 09:11:29;;;;;;;22.97;18.53;;;5.60;97.20;;;;;;1720873;28;20211;-65
2023/03/04 09:12:20;;;;;;;23.45;18.75;;;5.60;97.20;;;;;;1721142;28;20201;-65
2023/03/04 09:13:14;;;;;;;24.37;19.53;;;5.60;97.20;;;;;;1720938;28;20204;-66
2023/03/04 09:14:05;;;;;;;24.67;20.25;;;5.60;97.20;;;;;;1720846;28;20449;-66
2023/03/04 09:14:57;;;;;;;29.27;20.50;;;5.60;97.20;;;;;;1721087;28;20220;-66
2023/03/04 09:15:50;;;;;;;25.73;19.77;;;5.60;97.20;;;;;;1719092;28;20272;-66
2023/03/04 09:16:42;;;;;;;26.00;19.23;;;5.60;97.20;;;;;;1714287;28;20206;-66
2023/03/04 09:17:33;;;;;;;23.60;20.13;;;5.60;97.20;;;;;;1714254;28;20609;-66
2023/03/04 09:18:26;;;;;;;23.38;18.83;;;5.60;97.20;;;;;;1714241;28;20241;-66
2023/03/04 09:19:17;;;;;;;32.78;21.27;;;5.60;97.20;;;;;;1714242;28;20221;-67
2023/03/04 09:20:11;;;;;;;26.40;20.93;;;5.60;97.20;;;;;;1714273;28;20212;-66
2023/03/04 09:21:02;;;;;;;24.77;19.00;;;5.60;97.20;;;;;;1714306;28;20245;-67
2023/03/04 09:21:56;;;;;;;27.23;20.90;;;5.60;97.20;;;;;;1714193;28;20210;-66
2023/03/04 09:22:47;;;;;;;26.48;20.05;;;5.60;97.20;;;;;;1714211;28;20663;-66
2023/03/04 09:23:39;;;;;;;24.37;19.03;;;5.60;97.20;;;;;;1714233;28;20748;-66
2023/03/04 09:24:30;;;;;;;25.83;18.70;;;5.60;97.20;;;;;;1714251;28;20876;-66
2023/03/04 09:25:22;;;;;;;24.00;19.50;;;5.60;97.20;;;;;;1714274;28;20580;-67
2023/03/04 09:26:15;;;;;;;22.25;19.17;;;5.60;97.20;;;;;;1717882;28;20200;-66
2023/03/04 09:27:07;;;;;;;24.48;20.15;;;5.60;97.20;;;;;;1720876;28;20659;-66
2023/03/04 09:27:57;;;;;;;26.60;19.17;;;5.60;97.20;;;;;;1720868;28;20210;-67
2023/03/04 09:28:51;;;;;;;24.40;19.20;;;5.60;97.20;;;;;;1720893;28;20215;-66
2023/03/04 09:29:43;;;;;;;24.75;18.92;;;5.60;97.20;;;;;;1720892;28;20448;-66
2023/03/04 09:30:35;;;;;;;31.30;20.73;;;5.60;97.20;;;;;;1720762;28;20647;-66
2023/03/04 09:31:28;;;;;;;26.08;21.25;;;5.60;97.20;;;;;;1720956;28;20201;-66
2023/03/04 09:32:19;;;;;;;24.33;19.25;;;5.60;97.20;;;;;;1720941;28;20198;-65
2023/03/04 09:33:11;;;;;;;26.00;19.38;;;5.60;97.20;;;;;;1720963;28;20209;-66
2023/03/04 09:34:02;;;;;;;25.83;19.35;;;5.60;97.20;;;;;;1720847;28;20201;-66
2023/03/04 09:34:53;;;;;;;30.63;21.05;;;5.60;97.20;;;;;;1719448;28;20702;-66
2023/03/04 09:35:47;;;;;;;28.03;21.50;;;5.60;97.20;;;;;;1716952;28;20902;-66
2023/03/04 09:36:38;;;;;;;28.60;20.15;;;5.60;97.20;;;;;;1720926;28;20201;-65
2023/03/04 09:37:32;;;;;;;25.52;19.65;;;5.60;97.20;;;;;;1727135;28;20192;-67
2023/03/04 09:38:23;;;;;;;27.27;21.58;;;5.60;97.20;;;;;;1717971;28;20226;-65
2023/03/04 09:39:15;;;;;;;28.77;20.60;;;5.50;97.20;;;;;;1714092;28;20240;-66
2023/03/04 09:40:08;;;;;;;27.30;19.50;;;5.60;97.20;;;;;;1714137;28;20205;-66
2023/03/04 09:41:04;;;;;;;25.77;20.08;;;5.60;97.20;;;;;;1715055;28;20214;-67
2023/03/04 09:41:58;;;;;;;26.80;20.65;;;5.60;97.20;;;;;;1714112;28;20250;-66
2023/03/04 09:42:52;;;;;;;26.30;20.15;;;5.60;97.20;;;;;;1714065;28;20741;-66
2023/03/04 09:43:47;;;;;;;21.90;18.92;;;5.60;97.20;;;;;;1714043;28;20210;-66
2023/03/04 09:44:41;;;;;;;27.63;21.08;;;5.60;97.20;;;;;;1714207;28;20253;-66
2023/03/04 09:45:37;;;;;;;26.13;20.58;;;5.60;97.20;;;;;;1714132;28;20206;-66
2023/03/04 09:46:33;;;;;;;24.70;20.05;;;5.70;97.20;;;;;;1714139;28;20293;-66
2023/03/04 09:47:26;;;;;;;27.02;19.58;;;5.70;97.20;;;;;;1718572;28;20204;-66
2023/03/04 09:48:21;;;;;;;24.30;18.92;;;5.70;97.20;;;;;;1720729;28;20217;-66
2023/03/04 09:49:14;;;;;;;24.17;19.15;;;5.70;97.20;;;;;;1720514;28;20273;-66
2023/03/04 09:50:08;;;;;;;22.92;19.73;;;5.70;97.20;;;;;;1720907;28;20625;-66
2023/03/04 09:51:13;;;;;;;24.23;19.10;;;5.70;97.20;;;;;;1720623;28;20217;-66
2023/03/04 09:52:14;;;;;;;25.00;19.20;;;5.80;97.20;;;;;;1720776;28;20216;-67
2023/03/04 09:53:20;;;;;;;25.50;19.45;;;5.80;97.20;;;;;;1710184;28;20213;-65
2023/03/04 09:54:17;;;;;;;28.48;20.50;;;5.80;97.20;;;;;;1712956;28;20209;-66
2023/03/04 09:55:19;;;;;;;32.03;19.52;;;5.80;97.20;;;;;;1713447;28;20264;-66
2023/03/04 09:56:12;;;;;;;26.77;19.88;;;5.80;97.20;;;;;;1712845;28;20284;-67
2023/03/04 09:57:20;;;;;;;24.85;20.40;;;5.80;97.20;;;;;;1714756;28;20205;-66
2023/03/04 09:58:22;;;;;;;24.33;20.40;;;5.80;97.20;;;;;;1719270;28;20196;-67
2023/03/04 09:59:22;;;;;;;25.38;19.55;;;5.70;97.20;;;;;;1720131;28;20205;-66
2023/03/04 10:00:18;;;;;;;24.70;19.85;;;5.70;97.20;;;;;;1720158;28;20264;-67
2023/03/04 10:01:15;;;;;;;25.10;20.08;;;5.70;97.20;;;;;;1720198;28;20213;-66
2023/03/04 10:02:18;;;;;;;24.88;20.38;;;5.70;97.20;;;;;;1720238;28;20232;-67
2023/03/04 10:03:17;;;;;;;23.83;19.50;;;5.80;97.20;;;;;;1719905;28;20619;-66
2023/03/04 10:04:15;;;;;;;23.38;19.63;;;5.80;97.20;;;;;;1720296;28;20627;-66
2023/03/04 10:05:12;;;;;;;25.35;19.85;;;5.80;97.20;;;;;;1720272;28;20216;-67
2023/03/04 10:06:07;;;;;;;24.73;19.70;;;5.80;97.20;;;;;;1719642;28;20216;-65
2023/03/04 10:06:59;;;;;;;25.50;21.10;;;5.90;97.20;;;;;;1719484;28;20201;-66
2023/03/04 10:07:59;;;;;;;27.65;19.92;;;5.90;97.20;;;;;;1719458;28;20272;-67
2023/03/04 10:08:57;;;;;;;28.75;21.00;;;5.90;97.20;;;;;;1713359;28;20202;-67
2023/03/04 10:09:54;;;;;;;32.55;21.42;;;5.90;97.20;;;;;;1713454;28;20718;-67
2023/03/04 10:10:47;;;;;;;23.38;19.88;;;5.90;97.20;;;;;;1713447;28;20222;-65
2023/03/04 10:11:44;;;;;;;26.40;22.38;;;6.00;97.20;;;;;;1713569;28;20241;-66
2023/03/04 10:12:39;;;;;;;23.75;20.70;;;6.00;97.20;;;;;;1713545;28;20202;-66
2023/03/04 10:13:37;;;;;;;26.20;20.88;;;6.10;97.20;;;;;;1713841;28;20719;-66
2023/03/04 10:14:34;;;;;;;25.20;22.38;;;6.10;97.20;;;;;;1713351;28;20240;-66
2023/03/04 10:15:35;;;;;;;25.40;21.20;;;6.20;97.20;;;;;;1713501;28;20208;-67
2023/03/04 10:16:31;;;;;;;24.50;21.30;;;6.30;97.20;;;;;;1713317;28;20202;-67
2023/03/04 10:17:29;;;;;;;27.63;21.90;;;6.30;97.20;;;;;;1717872;28;20193;-67
2023/03/04 10:18:23;;;;;;;28.42;21.45;;;6.30;97.20;;;;;;1720608;28;20213;-67
2023/03/04 10:19:24;;;;;;;25.10;21.80;;;6.40;97.20;;;;;;1720622;28;20207;-67
2023/03/04 10:20:20;;;;;;;27.50;22.25;;;6.40;97.20;;;;;;1720590;28;20201;-66
2023/03/04 10:21:20;;;;;;;27.80;22.50;;;6.50;97.20;;;;;;1720614;28;20259;-67
2023/03/04 10:22:18;;;;;;;27.63;22.75;;;6.50;97.20;;;;;;1720524;28;20212;-67
2023/03/04 10:23:15;;;;;;;27.38;21.80;;;6.60;97.20;;;;;;1719925;28;20655;-67
2023/03/04 10:24:12;;;;;;;26.90;22.23;;;6.60;97.20;;;;;;1720393;28;20220;-67
2023/03/04 10:25:17;;;;;;;36.30;22.05;;;6.60;97.20;;;;;;1720667;28;20205;-67
2023/03/04 10:26:13;;;;;;;35.63;24.10;;;6.70;97.20;;;;;;1720332;28;20663;-67
2023/03/04 10:27:10;;;;;;;26.52;23.65;;;6.70;97.20;;;;;;1718883;28;20735;-68
2023/03/04 10:28:04;;;;;;;29.90;24.30;;;6.70;97.20;;;;;;1713957;28;20209;-68
2023/03/04 10:28:56;;;;;;;32.55;24.50;;;6.70;97.20;;;;;;1713961;28;20825;-68
2023/03/04 10:29:47;;;;;;;29.58;25.50;;;6.80;97.20;;;;;;1713869;28;20205;-68